createdAt,value
2019-03-23T00:00:18.008Z,302.37
2019-03-23T00:01:18.021Z,302.40
2019-03-23T00:02:17.996Z,302.42
2019-03-23T00:03:18.023Z,302.40
2019-03-23T00:04:17.986Z,302.26
2019-03-23T00:05:17.960Z,302.26
2019-03-23T00:06:17.940Z,302.27
2019-03-23T00:07:17.932Z,302.18
2019-03-23T00:08:17.932Z,302.37
2019-03-23T00:09:17.937Z,302.37
2019-03-23T00:10:17.907Z,302.06
2019-03-23T00:11:17.887Z,302.51
2019-03-23T00:12:17.877Z,302.52
2019-03-23T00:13:17.878Z,302.46
2019-03-23T00:14:17.910Z,302.45
2019-03-23T00:15:17.846Z,302.40
2019-03-23T00:16:17.834Z,302.19
2019-03-23T00:17:17.823Z,302.23
2019-03-23T00:18:17.826Z,302.37
2019-03-23T00:19:17.846Z,302.29
2019-03-23T00:20:17.812Z,302.39
2019-03-23T00:21:17.790Z,302.33
2019-03-23T00:22:17.789Z,302.27
2019-03-23T00:23:17.760Z,302.47
2019-03-23T00:24:17.835Z,302.42
2019-03-23T00:25:17.751Z,302.23
2019-03-23T00:26:17.737Z,302.40
2019-03-23T00:27:17.731Z,302.28
2019-03-23T00:28:17.732Z,302.37
2019-03-23T00:29:17.706Z,302.48
2019-03-23T00:30:17.717Z,302.50
2019-03-23T00:31:17.698Z,302.41
2019-03-23T00:32:17.692Z,302.29
2019-03-23T00:33:17.663Z,302.50
2019-03-23T00:34:17.659Z,302.35
2019-03-23T00:35:17.647Z,302.39
2019-03-23T00:36:17.661Z,302.40
2019-03-23T00:37:17.642Z,302.33
2019-03-23T00:38:17.612Z,302.36
2019-03-23T00:39:17.600Z,302.37
2019-03-23T00:40:17.608Z,302.24
2019-03-23T00:41:17.592Z,302.36
2019-03-23T00:42:17.569Z,302.35
2019-03-23T00:43:17.556Z,302.35
2019-03-23T00:44:17.561Z,302.35
2019-03-23T00:45:17.579Z,302.51
2019-03-23T00:46:17.533Z,302.45
2019-03-23T00:47:17.525Z,302.25
2019-03-23T00:48:17.509Z,302.40
2019-03-23T00:49:17.494Z,302.36
2019-03-23T00:50:17.481Z,302.50
2019-03-23T00:51:17.482Z,302.43
2019-03-23T00:52:17.458Z,302.25
2019-03-23T00:53:17.469Z,302.33
2019-03-23T00:54:17.440Z,302.19
2019-03-23T00:55:17.456Z,302.38
2019-03-23T00:56:17.439Z,302.23
2019-03-23T00:57:17.462Z,302.25
2019-03-23T00:58:17.402Z,302.41
2019-03-23T00:59:17.389Z,302.22
2019-03-23T01:00:17.388Z,302.15
2019-03-23T01:01:17.435Z,302.30
2019-03-23T01:02:17.368Z,302.20
2019-03-23T01:03:17.361Z,302.37
2019-03-23T01:04:17.331Z,302.18
2019-03-23T01:05:17.352Z,302.23
2019-03-23T01:06:17.308Z,302.34
2019-03-23T01:07:17.401Z,302.37
2019-03-23T01:08:17.315Z,302.09
2019-03-23T01:09:17.291Z,302.27
2019-03-23T01:10:17.283Z,302.16
2019-03-23T01:11:17.253Z,302.16
2019-03-23T01:12:17.256Z,302.25
2019-03-23T01:13:17.285Z,302.29
2019-03-23T01:14:17.222Z,302.22
2019-03-23T01:15:17.223Z,302.29
2019-03-23T01:16:17.202Z,302.24
2019-03-23T01:17:17.210Z,302.45
2019-03-23T01:18:17.225Z,302.22
2019-03-23T01:19:17.180Z,302.10
2019-03-23T01:20:17.191Z,302.06
2019-03-23T01:21:17.151Z,302.14
2019-03-23T01:22:17.149Z,302.25
2019-03-23T01:23:17.167Z,302.19
2019-03-23T01:24:17.138Z,302.27
2019-03-23T01:25:17.163Z,302.14
2019-03-23T01:26:17.110Z,302.08
2019-03-23T01:27:17.081Z,302.34
2019-03-23T01:28:17.082Z,302.32
2019-03-23T01:29:17.074Z,302.25
2019-03-23T01:30:17.115Z,302.19
2019-03-23T01:31:17.033Z,302.22
2019-03-23T01:32:17.037Z,302.22
2019-03-23T01:33:17.062Z,302.26
2019-03-23T01:34:17.019Z,302.15
2019-03-23T01:35:17.020Z,302.21
2019-03-23T01:36:17.030Z,302.41
2019-03-23T01:37:16.981Z,302.16
2019-03-23T01:38:16.976Z,302.17
2019-03-23T01:39:16.975Z,302.30
2019-03-23T01:40:16.979Z,302.29
2019-03-23T01:41:16.943Z,302.23
2019-03-23T01:42:16.960Z,302.22
2019-03-23T01:43:16.945Z,302.34
2019-03-23T01:44:16.932Z,302.26
2019-03-23T01:45:16.909Z,302.47
2019-03-23T01:46:16.911Z,302.24
2019-03-23T01:47:16.910Z,302.40
2019-03-23T01:48:16.903Z,302.29
2019-03-23T01:49:16.847Z,302.27
2019-03-23T01:50:16.840Z,302.44
2019-03-23T01:51:16.869Z,302.22
2019-03-23T01:52:16.829Z,302.29
2019-03-23T01:53:16.825Z,302.46
2019-03-23T01:54:16.805Z,302.01
2019-03-23T01:55:16.780Z,302.23
2019-03-23T01:56:16.810Z,302.13
2019-03-23T01:57:16.865Z,302.41
2019-03-23T01:58:16.761Z,302.22
2019-03-23T01:59:16.758Z,302.34
2019-03-23T02:00:16.778Z,302.36
2019-03-23T02:01:16.727Z,302.50
2019-03-23T02:02:16.715Z,302.42
2019-03-23T02:03:16.829Z,302.20
2019-03-23T02:04:16.683Z,302.27
2019-03-23T02:05:16.682Z,302.38
2019-03-23T02:06:16.694Z,302.19
2019-03-23T02:07:16.654Z,302.30
2019-03-23T02:08:16.647Z,302.26
2019-03-23T02:09:16.668Z,302.39
2019-03-23T02:10:16.634Z,302.15
2019-03-23T02:11:16.636Z,302.40
2019-03-23T02:12:16.633Z,302.11
2019-03-23T02:13:16.596Z,302.21
2019-03-23T02:14:16.607Z,302.30
2019-03-23T02:15:16.576Z,302.33
2019-03-23T02:16:16.562Z,302.31
2019-03-23T02:17:16.562Z,302.12
2019-03-23T02:18:16.538Z,302.27
2019-03-23T02:19:16.542Z,302.23
2019-03-23T02:20:16.529Z,302.28
2019-03-23T02:21:16.497Z,302.37
2019-03-23T02:22:16.484Z,302.48
2019-03-23T02:23:16.470Z,302.53
2019-03-23T02:24:16.499Z,302.25
2019-03-23T02:25:16.486Z,302.24
2019-03-23T02:26:16.452Z,302.23
2019-03-23T02:27:16.458Z,302.30
2019-03-23T02:28:16.439Z,302.36
2019-03-23T02:29:16.494Z,302.32
2019-03-23T02:30:16.421Z,302.33
2019-03-23T02:31:16.491Z,302.42
2019-03-23T02:32:16.479Z,302.39
2019-03-23T02:33:16.388Z,302.33
2019-03-23T02:34:16.513Z,302.37
2019-03-23T02:35:16.370Z,302.65
2019-03-23T02:36:16.452Z,302.54
2019-03-23T02:37:27.222Z,302.25
2019-03-23T02:38:17.378Z,302.33
2019-03-23T02:39:16.384Z,302.29
2019-03-23T02:40:16.321Z,302.39
2019-03-23T02:41:16.296Z,302.20
2019-03-23T02:42:16.289Z,302.22
2019-03-23T02:43:16.277Z,302.43
2019-03-23T02:44:16.260Z,302.34
2019-03-23T02:45:16.281Z,302.28
2019-03-23T02:46:16.296Z,302.39
2019-03-23T02:47:16.224Z,302.44
2019-03-23T02:48:16.217Z,302.43
2019-03-23T02:49:16.198Z,302.39
2019-03-23T02:50:16.198Z,302.40
2019-03-23T02:51:16.203Z,302.45
2019-03-23T02:52:16.163Z,302.49
2019-03-23T02:53:16.155Z,302.27
2019-03-23T02:54:16.140Z,302.53
2019-03-23T02:55:16.184Z,302.34
2019-03-23T02:56:16.157Z,302.45
2019-03-23T02:57:16.142Z,302.25
2019-03-23T02:58:16.138Z,302.43
2019-03-23T02:59:16.095Z,302.40
2019-03-23T03:00:16.118Z,302.46
2019-03-23T03:01:16.070Z,302.53
2019-03-23T03:02:16.062Z,302.47
2019-03-23T03:03:16.063Z,302.14
2019-03-23T03:04:16.031Z,302.25
2019-03-23T03:05:16.050Z,302.27
2019-03-23T03:06:16.181Z,302.23
2019-03-23T03:07:16.003Z,302.33
2019-03-23T03:08:16.082Z,302.46
2019-03-23T03:09:15.992Z,302.35
2019-03-23T03:10:15.981Z,302.43
2019-03-23T03:11:15.960Z,302.17
2019-03-23T03:12:15.974Z,302.25
2019-03-23T03:13:15.953Z,302.23
2019-03-23T03:14:15.932Z,302.36
2019-03-23T03:15:15.947Z,302.18
2019-03-23T03:16:15.916Z,302.34
2019-03-23T03:17:15.934Z,302.52
2019-03-23T03:18:15.915Z,302.44
2019-03-23T03:19:15.875Z,302.21
2019-03-23T03:20:15.867Z,302.38
2019-03-23T03:21:15.864Z,302.19
2019-03-23T03:22:15.848Z,302.30
2019-03-23T03:23:15.845Z,302.36
2019-03-23T03:24:15.841Z,302.50
2019-03-23T03:25:15.809Z,302.27
2019-03-23T03:26:15.809Z,302.37
2019-03-23T03:27:15.819Z,302.33
2019-03-23T03:28:15.813Z,302.21
2019-03-23T03:29:15.783Z,302.06
2019-03-23T03:30:15.759Z,302.18
2019-03-23T03:31:15.878Z,302.25
2019-03-23T03:32:15.772Z,302.26
2019-03-23T03:33:15.769Z,302.29
2019-03-23T03:34:15.819Z,302.36
2019-03-23T03:35:20.647Z,302.32
2019-03-23T03:36:15.700Z,302.28
2019-03-23T03:37:15.716Z,302.25
2019-03-23T03:38:15.735Z,302.06
2019-03-23T03:39:15.668Z,302.32
2019-03-23T03:40:15.642Z,302.14
2019-03-23T03:41:15.727Z,302.34
2019-03-23T03:42:15.623Z,302.37
2019-03-23T03:43:15.654Z,302.46
2019-03-23T03:44:15.777Z,302.24
2019-03-23T03:45:15.695Z,302.35
2019-03-23T03:46:15.590Z,302.47
2019-03-23T03:47:15.602Z,302.37
2019-03-23T03:48:15.612Z,302.25
2019-03-23T03:49:15.547Z,302.34
2019-03-23T03:50:15.682Z,302.28
2019-03-23T03:51:15.549Z,302.32
2019-03-23T03:52:15.541Z,302.22
2019-03-23T03:53:15.561Z,302.34
2019-03-23T03:54:15.507Z,302.24
2019-03-23T03:55:15.496Z,302.08
2019-03-23T03:56:15.508Z,302.39
2019-03-23T03:57:15.464Z,302.44
2019-03-23T03:58:15.460Z,302.34
2019-03-23T03:59:15.594Z,302.51
2019-03-23T04:00:15.447Z,302.27
2019-03-23T04:01:15.527Z,302.27
2019-03-23T04:02:15.417Z,302.37
2019-03-23T04:03:15.443Z,302.26
2019-03-23T04:04:15.550Z,302.46
2019-03-23T04:05:15.425Z,302.46
2019-03-23T04:06:15.379Z,302.33
2019-03-23T04:07:15.370Z,302.33
2019-03-23T04:08:15.376Z,302.42
2019-03-23T04:09:15.341Z,302.33
2019-03-23T04:10:15.335Z,302.48
2019-03-23T04:11:15.364Z,302.22
2019-03-23T04:12:15.323Z,302.24
2019-03-23T04:13:15.299Z,302.35
2019-03-23T04:14:15.295Z,302.35
2019-03-23T04:15:15.274Z,302.29
2019-03-23T04:16:15.264Z,302.28
2019-03-23T04:17:15.291Z,302.39
2019-03-23T04:18:15.252Z,302.36
2019-03-23T04:19:15.387Z,302.38
2019-03-23T04:20:15.218Z,302.46
2019-03-23T04:21:15.237Z,302.27
2019-03-23T04:22:15.203Z,302.42
2019-03-23T04:23:15.206Z,302.30
2019-03-23T04:24:15.178Z,302.32
2019-03-23T04:25:15.174Z,302.27
2019-03-23T04:26:15.179Z,302.46
2019-03-23T04:27:15.209Z,302.27
2019-03-23T04:28:15.143Z,302.19
2019-03-23T04:29:15.134Z,302.31
2019-03-23T04:30:15.111Z,302.29
2019-03-23T04:31:15.119Z,302.45
2019-03-23T04:32:15.113Z,302.22
2019-03-23T04:33:15.082Z,302.40
2019-03-23T04:34:15.082Z,302.48
2019-03-23T04:35:15.058Z,302.35
2019-03-23T04:36:15.112Z,302.39
2019-03-23T04:37:15.091Z,302.42
2019-03-23T04:38:22.586Z,302.47
2019-03-23T04:39:16.014Z,302.31
2019-03-23T04:40:15.013Z,302.51
2019-03-23T04:41:15.018Z,302.50
2019-03-23T04:42:15.020Z,302.45
2019-03-23T04:43:14.981Z,302.43
2019-03-23T04:44:15.023Z,302.49
2019-03-23T04:45:14.960Z,302.47
2019-03-23T04:46:14.940Z,302.45
2019-03-23T04:47:15.005Z,302.35
2019-03-23T04:48:14.963Z,302.36
2019-03-23T04:49:14.937Z,302.54
2019-03-23T04:50:14.899Z,302.57
2019-03-23T04:51:14.902Z,302.42
2019-03-23T04:52:14.883Z,302.39
2019-03-23T04:53:14.873Z,302.42
2019-03-23T04:54:14.884Z,302.42
2019-03-23T04:55:14.855Z,302.43
2019-03-23T04:56:14.825Z,302.45
2019-03-23T04:57:14.833Z,302.60
2019-03-23T04:58:14.889Z,302.37
2019-03-23T04:59:14.804Z,302.61
2019-03-23T05:00:14.840Z,302.47
2019-03-23T05:01:14.791Z,302.34
2019-03-23T05:02:14.761Z,302.58
2019-03-23T05:03:14.764Z,302.42
2019-03-23T05:04:14.778Z,302.56
2019-03-23T05:05:14.761Z,302.39
2019-03-23T05:06:14.787Z,302.40
2019-03-23T05:07:14.747Z,302.42
2019-03-23T05:08:14.725Z,302.43
2019-03-23T05:09:14.683Z,302.40
2019-03-23T05:10:14.700Z,302.37
2019-03-23T05:11:14.674Z,302.44
2019-03-23T05:12:14.656Z,302.56
2019-03-23T05:13:14.695Z,302.25
2019-03-23T05:14:14.641Z,302.76
2019-03-23T05:15:14.626Z,302.37
2019-03-23T05:16:14.634Z,302.33
2019-03-23T05:17:14.608Z,302.50
2019-03-23T05:18:14.598Z,302.50
2019-03-23T05:19:14.613Z,302.39
2019-03-23T05:20:14.564Z,302.46
2019-03-23T05:21:14.559Z,302.48
2019-03-23T05:22:14.557Z,302.42
2019-03-23T05:23:14.554Z,302.41
2019-03-23T05:24:14.564Z,302.66
2019-03-23T05:25:14.529Z,302.40
2019-03-23T05:26:14.494Z,302.67
2019-03-23T05:27:14.505Z,302.53
2019-03-23T05:28:14.488Z,302.48
2019-03-23T05:29:14.501Z,302.53
2019-03-23T05:30:14.496Z,302.58
2019-03-23T05:31:14.463Z,302.42
2019-03-23T05:32:14.450Z,302.37
2019-03-23T05:33:14.435Z,302.50
2019-03-23T05:34:14.442Z,302.53
2019-03-23T05:35:14.415Z,302.58
2019-03-23T05:36:15.383Z,302.61
2019-03-23T05:37:14.386Z,302.65
2019-03-23T05:38:14.383Z,302.50
2019-03-23T05:39:14.389Z,302.65
2019-03-23T05:40:14.352Z,302.60
2019-03-23T05:41:14.343Z,302.47
2019-03-23T05:42:14.329Z,302.35
2019-03-23T05:43:14.352Z,302.53
2019-03-23T05:44:14.334Z,302.33
2019-03-23T05:45:14.319Z,302.44
2019-03-23T05:46:14.378Z,302.45
2019-03-23T05:47:14.289Z,302.50
2019-03-23T05:48:14.277Z,302.59
2019-03-23T05:49:14.267Z,302.56
2019-03-23T05:50:14.269Z,302.61
2019-03-23T05:51:14.244Z,302.62
2019-03-23T05:52:14.230Z,302.73
2019-03-23T05:53:14.226Z,302.77
2019-03-23T05:54:14.218Z,302.67
2019-03-23T05:55:14.216Z,302.53
2019-03-23T05:56:14.219Z,302.73
2019-03-23T05:57:14.172Z,302.60
2019-03-23T05:58:14.169Z,302.72
2019-03-23T05:59:14.158Z,302.86
2019-03-23T06:00:14.146Z,302.63
2019-03-23T06:01:14.191Z,302.67
2019-03-23T06:02:14.118Z,302.78
2019-03-23T06:03:14.125Z,302.60
2019-03-23T06:04:14.092Z,302.91
2019-03-23T06:05:14.081Z,302.71
2019-03-23T06:06:14.103Z,302.59
2019-03-23T06:07:14.099Z,302.75
2019-03-23T06:08:14.069Z,302.75
2019-03-23T06:09:14.061Z,302.70
2019-03-23T06:10:14.029Z,302.67
2019-03-23T06:11:14.015Z,302.99
2019-03-23T06:12:14.228Z,302.75
2019-03-23T06:13:14.028Z,302.78
2019-03-23T06:14:13.996Z,302.84
2019-03-23T06:15:13.990Z,302.66
2019-03-23T06:16:13.977Z,302.73
2019-03-23T06:17:13.956Z,302.73
2019-03-23T06:18:13.994Z,302.83
2019-03-23T06:19:13.950Z,302.72
2019-03-23T06:20:13.932Z,302.94
2019-03-23T06:21:13.931Z,302.85
2019-03-23T06:22:13.901Z,303.04
2019-03-23T06:23:13.894Z,302.95
2019-03-23T06:24:13.916Z,302.75
2019-03-23T06:25:13.882Z,302.80
2019-03-23T06:26:13.874Z,302.94
2019-03-23T06:27:14.189Z,302.98
2019-03-23T06:28:13.849Z,303.04
2019-03-23T06:29:13.867Z,303.06
2019-03-23T06:30:13.851Z,303.21
2019-03-23T06:31:13.824Z,302.86
2019-03-23T06:32:13.847Z,302.95
2019-03-23T06:33:13.833Z,302.97
2019-03-23T06:34:13.787Z,303.04
2019-03-23T06:35:13.809Z,302.86
2019-03-23T06:36:13.795Z,303.05
2019-03-23T06:37:13.769Z,302.89
2019-03-23T06:38:16.204Z,302.97
2019-03-23T06:39:13.732Z,303.02
2019-03-23T06:40:13.736Z,302.93
2019-03-23T06:41:13.730Z,303.25
2019-03-23T06:42:13.707Z,303.02
2019-03-23T06:43:13.682Z,302.88
2019-03-23T06:44:13.672Z,303.05
2019-03-23T06:45:13.673Z,303.07
2019-03-23T06:46:13.661Z,303.13
2019-03-23T06:47:13.676Z,303.04
2019-03-23T06:48:13.643Z,303.23
2019-03-23T06:49:13.655Z,303.07
2019-03-23T06:50:13.647Z,303.14
2019-03-23T06:51:13.615Z,303.23
2019-03-23T06:52:13.626Z,303.35
2019-03-23T06:53:13.597Z,302.99
2019-03-23T06:54:13.563Z,303.09
2019-03-23T06:55:13.608Z,303.20
2019-03-23T06:56:13.567Z,303.27
2019-03-23T06:57:13.545Z,303.27
2019-03-23T06:58:13.564Z,302.99
2019-03-23T06:59:13.535Z,303.37
2019-03-23T07:00:13.528Z,303.23
2019-03-23T07:01:13.510Z,303.22
2019-03-23T07:02:13.511Z,303.04
2019-03-23T07:03:13.469Z,303.22
2019-03-23T07:04:13.497Z,303.16
2019-03-23T07:05:13.479Z,303.34
2019-03-23T07:06:13.453Z,303.25
2019-03-23T07:07:13.468Z,303.28
2019-03-23T07:08:13.422Z,303.35
2019-03-23T07:09:16.398Z,303.27
2019-03-23T07:10:13.393Z,303.36
2019-03-23T07:11:13.423Z,303.43
2019-03-23T07:12:13.389Z,303.21
2019-03-23T07:13:13.419Z,303.44
2019-03-23T07:14:13.420Z,303.07
2019-03-23T07:15:19.861Z,303.11
2019-03-23T07:16:14.356Z,303.30
2019-03-23T07:17:13.329Z,303.27
2019-03-23T07:18:13.341Z,303.30
2019-03-23T07:19:13.309Z,303.49
2019-03-23T07:20:13.304Z,303.30
2019-03-23T07:21:13.284Z,303.40
2019-03-23T07:22:13.299Z,303.09
2019-03-23T07:23:13.267Z,303.29
2019-03-23T07:24:13.276Z,303.20
2019-03-23T07:25:13.287Z,303.37
2019-03-23T07:26:13.233Z,303.25
2019-03-23T07:27:13.220Z,303.41
2019-03-23T07:28:13.237Z,303.40
2019-03-23T07:29:13.197Z,303.34
2019-03-23T07:30:13.249Z,303.18
2019-03-23T07:31:13.213Z,303.61
2019-03-23T07:32:13.189Z,303.47
2019-03-23T07:33:13.159Z,303.21
2019-03-23T07:34:13.210Z,303.33
2019-03-23T07:35:13.160Z,303.25
2019-03-23T07:36:13.180Z,303.55
2019-03-23T07:37:13.114Z,303.48
2019-03-23T07:38:13.211Z,303.24
2019-03-23T07:39:27.235Z,303.37
2019-03-23T07:40:14.084Z,303.21
2019-03-23T07:41:13.068Z,303.21
2019-03-23T07:42:13.042Z,303.30
2019-03-23T07:43:13.102Z,303.14
2019-03-23T07:44:13.037Z,303.39
2019-03-23T07:45:22.276Z,303.16
2019-03-23T07:46:13.023Z,303.28
2019-03-23T07:47:12.995Z,302.96
2019-03-23T07:48:13.030Z,303.15
2019-03-23T07:49:12.998Z,303.18
2019-03-23T07:50:12.976Z,303.22
2019-03-23T07:51:12.989Z,303.34
2019-03-23T07:52:12.938Z,303.19
2019-03-23T07:53:12.939Z,303.32
2019-03-23T07:54:12.944Z,303.18
2019-03-23T07:55:12.919Z,303.17
2019-03-23T07:56:12.936Z,303.13
2019-03-23T07:57:12.903Z,303.34
2019-03-23T07:58:12.908Z,303.00
2019-03-23T07:59:12.875Z,303.23
2019-03-23T08:00:12.874Z,303.42
2019-03-23T08:01:12.869Z,303.28
2019-03-23T08:02:12.830Z,303.10
2019-03-23T08:03:12.845Z,303.18
2019-03-23T08:04:12.907Z,303.15
2019-03-23T08:05:12.916Z,303.35
2019-03-23T08:06:12.814Z,303.16
2019-03-23T08:07:12.793Z,303.30
2019-03-23T08:08:12.773Z,303.05
2019-03-23T08:09:20.435Z,303.23
2019-03-23T08:10:13.819Z,303.27
2019-03-23T08:11:12.795Z,303.20
2019-03-23T08:12:12.784Z,303.20
2019-03-23T08:13:12.781Z,303.25
2019-03-23T08:14:12.753Z,302.95
2019-03-23T08:15:12.780Z,303.23
2019-03-23T08:16:12.735Z,303.11
2019-03-23T08:17:12.684Z,303.20
2019-03-23T08:18:12.699Z,303.24
2019-03-23T08:19:12.707Z,303.31
2019-03-23T08:20:12.705Z,303.27
2019-03-23T08:21:12.656Z,303.09
2019-03-23T08:22:12.634Z,303.25
2019-03-23T08:23:12.616Z,303.28
2019-03-23T08:24:12.618Z,302.96
2019-03-23T08:25:12.607Z,302.93
2019-03-23T08:26:12.594Z,303.20
2019-03-23T08:27:12.577Z,303.11
2019-03-23T08:28:12.608Z,303.06
2019-03-23T08:29:12.553Z,303.20
2019-03-23T08:30:12.564Z,303.18
2019-03-23T08:31:12.557Z,303.22
2019-03-23T08:32:12.533Z,303.10
2019-03-23T08:33:12.508Z,303.03
2019-03-23T08:34:12.505Z,303.13
2019-03-23T08:35:13.219Z,303.18
2019-03-23T08:36:12.524Z,303.25
2019-03-23T08:37:12.504Z,303.09
2019-03-23T08:38:12.479Z,303.09
2019-03-23T08:39:12.476Z,303.14
2019-03-23T08:40:12.488Z,303.14
2019-03-23T08:41:12.482Z,303.06
2019-03-23T08:42:13.221Z,303.33
2019-03-23T08:43:12.443Z,303.15
2019-03-23T08:44:13.223Z,302.99
2019-03-23T08:45:12.396Z,303.18
2019-03-23T08:46:12.443Z,303.27
2019-03-23T08:47:12.405Z,303.13
2019-03-23T08:48:12.393Z,303.23
2019-03-23T08:49:12.330Z,303.15
2019-03-23T08:50:13.236Z,303.00
2019-03-23T08:51:12.366Z,303.11
2019-03-23T08:52:22.267Z,303.21
2019-03-23T08:53:13.778Z,303.18
2019-03-23T08:54:12.604Z,303.05
2019-03-23T08:55:12.273Z,303.10
2019-03-23T08:56:21.359Z,302.81
2019-03-23T08:57:13.331Z,303.16
2019-03-23T08:58:13.349Z,303.09
2019-03-23T08:59:12.233Z,303.05
2019-03-23T09:00:13.008Z,302.80
2019-03-23T09:01:13.882Z,303.11
2019-03-23T09:02:12.290Z,302.79
2019-03-23T09:03:12.191Z,303.19
2019-03-23T09:04:12.212Z,303.02
2019-03-23T09:05:13.297Z,302.91
2019-03-23T09:06:13.296Z,302.98
2019-03-23T09:07:12.189Z,302.86
2019-03-23T09:08:12.872Z,303.03
2019-03-23T09:09:12.172Z,302.86
2019-03-23T09:10:12.138Z,302.70
2019-03-23T09:11:20.391Z,302.74
2019-03-23T09:12:13.798Z,302.71
2019-03-23T09:13:12.118Z,302.76
2019-03-23T09:14:12.075Z,302.75
2019-03-23T09:15:12.081Z,302.86
2019-03-23T09:16:12.062Z,302.73
2019-03-23T09:17:12.073Z,302.64
2019-03-23T09:18:12.031Z,302.66
2019-03-23T09:19:12.062Z,302.51
2019-03-23T09:20:12.832Z,302.78
2019-03-23T09:21:12.986Z,302.59
2019-03-23T09:22:11.994Z,302.67
2019-03-23T09:23:11.977Z,302.62
2019-03-23T09:24:12.002Z,302.68
2019-03-23T09:25:11.967Z,302.68
2019-03-23T09:26:13.662Z,302.74
2019-03-23T09:27:12.734Z,302.68
2019-03-23T09:28:11.940Z,302.64
2019-03-23T09:29:11.971Z,302.82
2019-03-23T09:30:11.898Z,302.75
2019-03-23T09:31:11.934Z,302.86
2019-03-23T09:32:11.901Z,302.83
2019-03-23T09:33:11.914Z,302.42
2019-03-23T09:34:11.912Z,302.66
2019-03-23T09:35:11.884Z,302.72
2019-03-23T09:36:11.859Z,302.64
2019-03-23T09:37:11.851Z,302.57
2019-03-23T09:38:11.813Z,302.67
2019-03-23T09:39:11.837Z,302.74
2019-03-23T09:40:11.801Z,302.74
2019-03-23T09:41:11.782Z,302.84
2019-03-23T09:42:11.795Z,302.69
2019-03-23T09:43:11.762Z,302.45
2019-03-23T09:44:11.798Z,302.70
2019-03-23T09:45:14.080Z,302.62
2019-03-23T09:46:11.779Z,302.63
2019-03-23T09:47:11.760Z,302.49
2019-03-23T09:48:11.720Z,302.72
2019-03-23T09:49:11.705Z,302.68
2019-03-23T09:50:11.700Z,302.71
2019-03-23T09:51:11.707Z,302.70
2019-03-23T09:52:11.695Z,302.47
2019-03-23T09:53:11.662Z,302.66
2019-03-23T09:54:11.679Z,302.35
2019-03-23T09:55:11.640Z,302.58
2019-03-23T09:56:11.651Z,302.40
2019-03-23T09:57:11.630Z,302.70
2019-03-23T09:58:11.630Z,302.38
2019-03-23T09:59:11.625Z,302.61
2019-03-23T10:00:11.572Z,302.52
2019-03-23T10:01:11.603Z,302.54
2019-03-23T10:02:11.584Z,302.36
2019-03-23T10:03:11.551Z,302.35
2019-03-23T10:04:11.543Z,302.40
2019-03-23T10:05:11.554Z,302.36
2019-03-23T10:06:11.544Z,302.33
2019-03-23T10:07:11.510Z,302.58
2019-03-23T10:08:11.515Z,302.39
2019-03-23T10:09:11.484Z,302.45
2019-03-23T10:10:21.260Z,302.16
2019-03-23T10:11:12.464Z,302.10
2019-03-23T10:12:11.455Z,302.24
2019-03-23T10:13:11.444Z,302.20
2019-03-23T10:14:11.426Z,302.27
2019-03-23T10:15:11.426Z,302.28
2019-03-23T10:16:11.433Z,302.21
2019-03-23T10:17:11.410Z,302.38
2019-03-23T10:18:11.416Z,301.99
2019-03-23T10:19:11.392Z,302.11
2019-03-23T10:20:11.396Z,302.25
2019-03-23T10:21:11.347Z,302.44
2019-03-23T10:22:11.352Z,302.21
2019-03-23T10:23:11.332Z,302.22
2019-03-23T10:24:11.352Z,302.28
2019-03-23T10:25:11.333Z,302.13
2019-03-23T10:26:11.346Z,302.14
2019-03-23T10:27:11.329Z,302.20
2019-03-23T10:28:11.345Z,302.27
2019-03-23T10:29:11.292Z,302.25
2019-03-23T10:30:11.314Z,302.25
2019-03-23T10:31:11.254Z,302.23
2019-03-23T10:32:11.239Z,302.33
2019-03-23T10:33:11.247Z,302.27
2019-03-23T10:34:11.227Z,302.35
2019-03-23T10:35:11.220Z,302.37
2019-03-23T10:36:12.276Z,302.19
2019-03-23T10:37:11.188Z,302.07
2019-03-23T10:38:11.190Z,302.07
2019-03-23T10:39:11.826Z,302.31
2019-03-23T10:40:11.829Z,302.40
2019-03-23T10:41:11.200Z,302.28
2019-03-23T10:42:11.205Z,302.29
2019-03-23T10:43:11.134Z,302.16
2019-03-23T10:44:11.185Z,302.19
2019-03-23T10:45:11.116Z,302.22
2019-03-23T10:46:11.116Z,302.15
2019-03-23T10:47:11.115Z,302.25
2019-03-23T10:48:12.214Z,302.07
2019-03-23T10:49:11.101Z,302.24
2019-03-23T10:50:11.109Z,302.25
2019-03-23T10:51:11.039Z,302.08
2019-03-23T10:52:11.024Z,301.93
2019-03-23T10:53:11.010Z,302.22
2019-03-23T10:54:11.832Z,302.12
2019-03-23T10:55:11.031Z,302.02
2019-03-23T10:56:11.005Z,302.05
2019-03-23T10:57:10.981Z,301.92
2019-03-23T10:58:10.961Z,302.05
2019-03-23T10:59:10.947Z,302.06
2019-03-23T11:00:10.930Z,301.78
2019-03-23T11:01:10.996Z,301.92
2019-03-23T11:02:10.934Z,301.90
2019-03-23T11:03:10.916Z,301.78
2019-03-23T11:04:10.959Z,301.87
2019-03-23T11:05:10.877Z,301.94
2019-03-23T11:06:10.913Z,301.45
2019-03-23T11:07:10.911Z,301.74
2019-03-23T11:08:10.885Z,301.63
2019-03-23T11:09:10.884Z,301.74
2019-03-23T11:10:10.832Z,301.63
2019-03-23T11:11:10.929Z,301.69
2019-03-23T11:12:10.829Z,301.75
2019-03-23T11:13:10.839Z,301.69
2019-03-23T11:14:10.866Z,301.80
2019-03-23T11:15:10.794Z,301.57
2019-03-23T11:16:10.767Z,301.48
2019-03-23T11:17:10.823Z,301.60
2019-03-23T11:18:10.752Z,301.68
2019-03-23T11:19:13.584Z,301.55
2019-03-23T11:20:10.755Z,301.46
2019-03-23T11:21:10.721Z,301.25
2019-03-23T11:22:10.797Z,301.28
2019-03-23T11:23:10.689Z,301.28
2019-03-23T11:24:10.685Z,301.41
2019-03-23T11:25:10.716Z,301.09
2019-03-23T11:26:10.669Z,301.24
2019-03-23T11:27:10.671Z,301.27
2019-03-23T11:28:10.641Z,301.08
2019-03-23T11:29:10.647Z,301.12
2019-03-23T11:30:10.624Z,301.31
2019-03-23T11:31:10.609Z,301.17
2019-03-23T11:32:10.674Z,300.98
2019-03-23T11:33:10.646Z,301.03
2019-03-23T11:34:17.579Z,300.94
2019-03-23T11:35:11.647Z,301.13
2019-03-23T11:36:10.552Z,300.98
2019-03-23T11:37:10.662Z,300.74
2019-03-23T11:38:10.558Z,300.92
2019-03-23T11:39:10.550Z,300.60
2019-03-23T11:40:10.515Z,300.31
2019-03-23T11:41:10.493Z,300.28
2019-03-23T11:42:10.485Z,300.36
2019-03-23T11:43:10.507Z,300.56
2019-03-23T11:44:10.510Z,300.40
2019-03-23T11:45:10.461Z,300.51
2019-03-23T11:46:10.452Z,300.52
2019-03-23T11:47:10.427Z,300.23
2019-03-23T11:48:10.462Z,300.59
2019-03-23T11:49:10.462Z,300.42
2019-03-23T11:50:10.388Z,300.50
2019-03-23T11:51:10.501Z,300.52
2019-03-23T11:52:10.365Z,299.96
2019-03-23T11:53:10.378Z,300.42
2019-03-23T11:54:10.369Z,300.42
2019-03-23T11:55:10.352Z,300.36
2019-03-23T11:56:10.343Z,300.32
2019-03-23T11:57:10.328Z,300.28
2019-03-23T11:58:10.350Z,300.16
2019-03-23T11:59:10.347Z,300.32
2019-03-23T12:00:10.322Z,299.84
2019-03-23T12:01:10.278Z,299.98
2019-03-23T12:02:10.271Z,300.25
2019-03-23T12:03:10.255Z,299.88
2019-03-23T12:04:10.261Z,300.41
2019-03-23T12:05:10.294Z,300.55
2019-03-23T12:06:10.227Z,300.37
2019-03-23T12:07:10.223Z,300.35
2019-03-23T12:08:10.205Z,300.58
2019-03-23T12:09:10.219Z,300.62
2019-03-23T12:10:10.234Z,300.56
2019-03-23T12:11:10.201Z,300.69
2019-03-23T12:12:10.148Z,300.68
2019-03-23T12:13:10.159Z,300.77
2019-03-23T12:14:10.177Z,300.70
2019-03-23T12:15:10.122Z,300.63
2019-03-23T12:16:10.185Z,300.81
2019-03-23T12:17:10.105Z,300.90
2019-03-23T12:18:10.125Z,301.19
2019-03-23T12:19:10.096Z,301.08
2019-03-23T12:20:10.142Z,301.20
2019-03-23T12:21:10.171Z,301.21
2019-03-23T12:22:10.118Z,301.47
2019-03-23T12:23:10.136Z,301.43
2019-03-23T12:24:10.058Z,301.54
2019-03-23T12:25:10.053Z,301.40
2019-03-23T12:26:10.006Z,301.20
2019-03-23T12:27:10.050Z,301.02
2019-03-23T12:28:09.993Z,300.99